Time;durP1;ratioP1;P1;durP2;ratioP2;P2;SDS_P1;SDS_P2;PMS_P1;PMS_P2;Temp;Humidity;BMP_temperature;BMP_pressure;BME280_temperature;BME280_humidity;BME280_pressure;Samples;Min_cycle;Max_cycle;Signal;HPM_P1;HPM_P2
2022/01/15 00:00:11;;;;;;;13.13;4.90;;;;;;;10.69;62.40;101304.13;5013848;28;20049;-81
2022/01/15 00:02:41;;;;;;;12.07;6.32;;;;;;;10.63;62.73;101303.97;5013259;28;20084;-79
2022/01/15 00:05:10;;;;;;;21.35;6.97;;;;;;;10.65;62.74;101302.25;5012914;28;20462;-80
2022/01/15 00:07:38;;;;;;;17.88;6.45;;;;;;;10.68;62.57;101304.97;5014503;28;20129;-81
2022/01/15 00:10:08;;;;;;;14.18;6.50;;;;;;;10.72;62.47;101306.81;5006148;28;20053;-80
2022/01/15 00:12:40;;;;;;;15.80;7.25;;;;;;;10.70;62.55;101303.22;5014221;28;20038;-80
2022/01/15 00:15:15;;;;;;;11.20;6.55;;;;;;;10.68;62.65;101297.94;4992816;28;20038;-81
2022/01/15 00:17:55;;;;;;;17.77;9.80;;;;;;;10.69;62.71;101283.88;4973881;28;20492;-80
2022/01/15 00:20:23;;;;;;;13.55;6.03;;;;;;;10.70;62.79;101279.47;4978953;28;20094;-80
2022/01/15 00:22:53;;;;;;;14.80;6.28;;;;;;;10.70;63.02;101297.94;4994375;28;20038;-80
2022/01/15 00:25:23;;;;;;;13.73;6.70;;;;;;;10.67;63.11;101293.50;4993278;28;20042;-80
2022/01/15 00:27:51;;;;;;;12.90;6.13;;;;;;;10.65;63.13;101289.03;4993374;28;20053;-80
2022/01/15 00:30:22;;;;;;;14.82;6.15;;;;;;;10.63;63.30;101290.78;4993368;28;20049;-80
2022/01/15 00:32:51;;;;;;;13.75;6.63;;;;;;;10.67;63.64;101289.97;4991106;28;20046;-80
2022/01/15 00:35:21;;;;;;;14.35;7.30;;;;;;;10.68;63.57;101292.66;4993337;28;20042;-80
2022/01/15 00:37:49;;;;;;;16.38;6.20;;;;;;;10.71;63.55;101283.91;4994430;28;20125;-80
2022/01/15 00:40:19;;;;;;;16.55;5.70;;;;;;;10.76;63.48;101285.78;4993408;28;20066;-80
2022/01/15 00:42:47;;;;;;;14.15;6.28;;;;;;;10.76;63.56;101287.56;4992868;28;20445;-80
2022/01/15 00:45:21;;;;;;;13.98;5.38;;;;;;;10.76;63.83;101282.28;4993314;28;20093;-80
2022/01/15 00:47:51;;;;;;;11.10;5.07;;;;;;;10.77;63.79;101294.59;4994317;28;20093;-80
2022/01/15 00:50:20;;;;;;;17.25;6.80;;;;;;;10.75;64.01;101278.75;4993821;28;20050;-81
2022/01/15 00:52:48;;;;;;;13.75;5.75;;;;;;;10.74;64.11;101279.59;4992669;28;20042;-80
2022/01/15 00:55:17;;;;;;;14.98;6.88;;;;;;;10.75;64.37;101285.78;4994026;28;20047;-79
2022/01/15 00:57:45;;;;;;;16.05;6.47;;;;;;;10.79;64.21;101271.78;4997418;28;20089;-80
2022/01/15 01:00:17;;;;;;;12.80;7.22;;;;;;;10.81;64.26;101274.47;5002618;28;20046;-80
2022/01/15 01:02:45;;;;;;;14.60;6.13;;;;;;;10.86;64.16;101272.81;4993242;28;20045;-81
2022/01/15 01:05:15;;;;;;;24.85;16.38;;;;;;;10.89;64.14;101273.78;4994003;28;20398;-80
2022/01/15 01:07:43;;;;;;;11.55;6.43;;;;;;;10.85;64.12;101257.81;4994265;28;20038;-80
2022/01/15 01:10:31;;;;;;;10.00;5.60;;;;;;;10.87;64.07;101261.38;5013960;28;20043;-79
2022/01/15 01:13:16;;;;;;;13.02;6.20;;;;;;;10.83;64.19;101257.75;4977367;28;20045;-81
2022/01/15 01:24:08;;;;;;;11.90;6.43;;;;;;;10.84;64.16;101246.34;4991983;28;20491;-81
2022/01/15 01:26:43;;;;;;;12.85;8.52;;;;;;;10.85;64.26;101250.78;4993138;28;20050;-81
2022/01/15 01:29:22;;;;;;;10.57;6.25;;;;;;;10.89;64.31;101244.72;5012340;28;20072;-79
2022/01/15 01:31:59;;;;;;;12.52;5.15;;;;;;;10.91;64.03;101236.81;4993843;28;20498;-81
2022/01/15 01:34:29;;;;;;;10.38;5.90;;;;;;;10.94;64.06;101240.44;4993349;28;20141;-81
2022/01/15 01:37:05;;;;;;;13.65;8.10;;;;;;;10.97;64.08;101240.47;4995921;28;20046;-81
2022/01/15 01:39:50;;;;;;;13.60;5.65;;;;;;;10.95;64.02;101233.41;5012731;28;20088;-80
2022/01/15 01:42:40;;;;;;;10.77;5.32;;;;;;;10.98;64.11;101241.38;4994185;28;20093;-81
2022/01/15 01:45:13;;;;;;;11.00;4.85;;;;;;;10.99;63.96;101227.31;4993306;28;20506;-80
2022/01/15 01:47:42;;;;;;;12.43;5.35;;;;;;;10.99;63.96;101228.19;4993284;28;20054;-81
2022/01/15 01:50:13;;;;;;;9.25;4.72;;;;;;;11.03;63.60;101227.41;5013040;28;20088;-81
2022/01/15 01:52:46;;;;;;;12.70;5.10;;;;;;;11.04;63.52;101226.53;5011295;28;20375;-79
2022/01/15 01:55:15;;;;;;;11.52;4.70;;;;;;;11.07;63.57;101228.38;5011482;28;20049;-80
2022/01/15 01:57:44;;;;;;;9.48;4.80;;;;;;;11.08;63.45;101225.78;4995163;28;20041;-80
2022/01/15 02:00:15;;;;;;;13.20;5.03;;;;;;;11.10;63.32;101208.19;4995506;28;20049;-79
2022/01/15 02:02:48;;;;;;;11.93;4.47;;;;;;;11.11;63.28;101207.31;5011129;28;20517;-80
2022/01/15 02:05:17;;;;;;;9.98;4.45;;;;;;;11.09;63.22;101206.38;4995183;28;20041;-79
2022/01/15 02:07:47;;;;;;;12.23;6.18;;;;;;;11.11;63.38;101214.34;5012269;28;20046;-81
2022/01/15 02:10:17;;;;;;;11.13;5.90;;;;;;;11.13;63.41;101210.91;5011392;28;20057;-80
2022/01/15 02:12:46;;;;;;;12.13;7.10;;;;;;;11.16;63.28;101212.69;5012276;28;20096;-81
2022/01/15 02:15:16;;;;;;;12.93;7.22;;;;;;;11.19;63.24;101205.72;5010962;28;20066;-80
2022/01/15 02:17:46;;;;;;;12.55;5.65;;;;;;;11.23;63.17;101205.78;5011942;28;20050;-80
2022/01/15 02:20:36;;;;;;;15.95;5.03;;;;;;;11.22;63.33;101204.03;5011068;28;20084;-81
2022/01/15 02:25:55;;;;;;;13.90;5.13;;;;;;;11.23;63.15;101196.09;5011476;28;20057;-80
2022/01/15 02:28:24;;;;;;;12.73;4.57;;;;;;;11.26;63.37;101195.28;5011976;28;20050;-80
2022/01/15 02:30:54;;;;;;;11.13;5.28;;;;;;;11.27;63.11;101194.44;5011746;28;20038;-81
2022/01/15 02:33:23;;;;;;;11.45;4.82;;;;;;;11.24;63.09;101195.25;5012049;28;20046;-80
2022/01/15 02:35:52;;;;;;;14.98;4.90;;;;;;;11.29;63.14;101183.00;5011029;28;20077;-79
2022/01/15 02:38:20;;;;;;;20.73;7.32;;;;;;;11.30;63.38;101186.53;5010171;28;20042;-80
2022/01/15 02:40:49;;;;;;;17.17;7.75;;;;;;;11.26;63.57;101180.31;5011814;28;20042;-81
2022/01/15 02:43:19;;;;;;;10.35;4.47;;;;;;;11.29;63.45;101182.16;5011915;28;20048;-80
2022/01/15 02:45:54;;;;;;;10.38;5.30;;;;;;;11.32;63.36;101188.38;5011821;28;20478;-80
2022/01/15 02:48:24;;;;;;;11.60;5.03;;;;;;;11.32;63.49;101188.38;5011361;28;20038;-80
2022/01/15 02:50:54;;;;;;;12.45;5.10;;;;;;;11.37;63.48;101177.88;5011817;28;20073;-81
2022/01/15 02:53:23;;;;;;;10.40;5.03;;;;;;;11.39;63.43;101181.44;5010548;28;20050;-81
2022/01/15 02:55:52;;;;;;;10.05;4.65;;;;;;;11.43;63.44;101176.22;5011461;28;20049;-80
2022/01/15 02:58:22;;;;;;;10.35;4.38;;;;;;;11.34;63.79;101172.53;5010803;28;20038;-80
2022/01/15 03:00:52;;;;;;;10.23;5.05;;;;;;;11.29;64.09;101176.84;5011309;28;20058;-80
2022/01/15 03:03:19;;;;;;;12.82;4.32;;;;;;;11.29;64.18;101172.44;5011755;28;20034;-81
2022/01/15 03:05:48;;;;;;;10.30;4.57;;;;;;;11.32;64.07;101176.91;5010221;28;20066;-80
2022/01/15 03:08:17;;;;;;;62.65;29.05;;;;;;;11.35;63.80;101172.56;5010332;28;20030;-80
2022/01/15 03:10:46;;;;;;;45.65;21.00;;;;;;;11.36;63.85;101169.03;5010637;28;20077;-80
2022/01/15 03:13:14;;;;;;;26.02;10.88;;;;;;;11.34;64.03;101167.25;4994170;28;20042;-81
2022/01/15 03:15:43;;;;;;;18.15;8.30;;;;;;;11.39;63.90;101166.47;4993817;28;20042;-79
2022/01/15 03:18:11;;;;;;;14.20;8.05;;;;;;;11.37;64.14;101156.72;5010398;28;20068;-81
2022/01/15 03:20:39;;;;;;;13.80;7.72;;;;;;;11.35;63.81;101167.28;4995716;28;20498;-81
2022/01/15 03:23:07;;;;;;;11.82;5.35;;;;;;;11.41;63.75;101177.97;5010220;28;20042;-81
2022/01/15 03:25:36;;;;;;;13.10;6.15;;;;;;;11.44;63.68;101167.44;5011152;28;20096;-81
2022/01/15 03:28:05;;;;;;;8.45;5.00;;;;;;;11.38;63.64;101156.75;5009972;28;20049;-81
2022/01/15 03:30:33;;;;;;;17.25;8.07;;;;;;;11.41;63.64;101163.88;5009923;28;20073;-80
2022/01/15 03:33:01;;;;;;;9.38;5.07;;;;;;;11.42;63.42;101163.00;4998427;28;20042;-82
2022/01/15 03:35:29;;;;;;;10.45;4.45;;;;;;;11.40;63.59;101162.09;5010208;28;20042;-81
2022/01/15 03:37:57;;;;;;;11.43;4.72;;;;;;;11.39;63.62;101171.75;5007332;28;20045;-82
2022/01/15 03:40:25;;;;;;;14.55;9.90;;;;;;;11.36;63.56;101179.63;5025317;28;20124;-81
2022/01/15 03:42:55;;;;;;;10.75;6.05;;;;;;;11.31;63.51;101176.00;4990181;28;20049;-81
2022/01/15 03:45:23;;;;;;;9.95;5.32;;;;;;;11.24;63.29;101168.81;4990444;28;20058;-81
2022/01/15 03:47:51;;;;;;;12.90;5.82;;;;;;;11.17;63.33;101169.56;4991593;28;20057;-81
2022/01/15 03:50:19;;;;;;;8.65;4.20;;;;;;;11.08;63.46;101175.56;5003464;28;20129;-80
2022/01/15 03:52:48;;;;;;;8.65;4.00;;;;;;;11.05;63.20;101186.06;5006034;28;20126;-80
2022/01/15 03:55:16;;;;;;;9.57;4.35;;;;;;;11.01;63.09;101186.88;4993682;28;20041;-80
2022/01/15 03:57:44;;;;;;;13.48;6.75;;;;;;;10.97;63.05;101189.41;4977877;28;20047;-81
2022/01/15 04:00:18;;;;;;;7.47;3.92;;;;;;;10.98;63.08;101189.44;4995280;28;20049;-79
2022/01/15 04:02:48;;;;;;;7.63;4.13;;;;;;;10.96;62.80;101179.72;4993876;28;20046;-80
2022/01/15 04:05:17;;;;;;;11.73;5.35;;;;;;;10.93;62.97;101190.19;4994868;28;20039;-79
2022/01/15 04:07:45;;;;;;;7.97;3.78;;;;;;;10.89;63.02;101181.34;4993416;28;20130;-80
2022/01/15 04:10:15;;;;;;;12.82;8.25;;;;;;;10.90;62.86;101185.75;5009523;28;20050;-80
2022/01/15 04:12:43;;;;;;;7.57;4.43;;;;;;;10.91;62.90;101184.88;4993298;28;20455;-80
2022/01/15 04:15:15;;;;;;;10.45;5.35;;;;;;;10.94;62.78;101182.31;4992673;28;20042;-79
2022/01/15 04:17:44;;;;;;;18.15;9.80;;;;;;;10.98;62.45;101196.47;4993712;28;20625;-80
2022/01/15 04:20:13;;;;;;;8.70;3.70;;;;;;;10.95;62.73;101193.78;4998841;28;20101;-79
2022/01/15 04:22:41;;;;;;;8.75;3.80;;;;;;;10.93;62.52;101195.47;4993574;28;20581;-80
2022/01/15 04:25:10;;;;;;;7.88;3.83;;;;;;;10.90;62.84;101198.94;5012604;28;20124;-81
2022/01/15 04:27:38;;;;;;;9.43;3.63;;;;;;;10.85;62.65;101212.91;5023499;28;20042;-80
2022/01/15 04:30:08;;;;;;;9.13;4.57;;;;;;;10.80;62.59;101207.53;4994978;28;20066;-81
2022/01/15 04:32:37;;;;;;;7.35;3.53;;;;;;;10.74;62.66;101215.34;4992867;28;20053;-81
2022/01/15 04:35:06;;;;;;;7.75;3.83;;;;;;;10.70;63.00;101208.19;4993386;28;20096;-81
2022/01/15 04:37:38;;;;;;;12.13;5.05;;;;;;;10.66;63.12;101209.88;4993153;28;20614;-80
2022/01/15 04:40:08;;;;;;;8.00;3.83;;;;;;;10.61;63.10;101208.00;4993072;28;20141;-80
2022/01/15 04:42:36;;;;;;;6.32;3.63;;;;;;;10.53;63.57;101213.09;4977244;28;20042;-81
2022/01/15 04:45:07;;;;;;;6.53;2.65;;;;;;;10.47;63.95;101212.06;4994128;28;20049;-80
2022/01/15 04:47:35;;;;;;;6.80;2.95;;;;;;;10.43;63.99;101212.88;4993029;28;20136;-81
2022/01/15 04:50:06;;;;;;;12.75;6.80;;;;;;;10.37;64.08;101217.13;4993537;28;20066;-81
2022/01/15 04:52:36;;;;;;;10.38;5.00;;;;;;;10.32;64.24;101210.84;4992777;28;20042;-80
2022/01/15 04:55:06;;;;;;;11.32;4.80;;;;;;;10.28;64.59;101209.00;4993999;28;20097;-80
2022/01/15 04:57:34;;;;;;;11.38;5.18;;;;;;;10.31;64.61;101208.16;4994018;28;20048;-80
2022/01/15 05:00:02;;;;;;;8.80;3.95;;;;;;;10.28;65.04;101218.66;4994018;28;20057;-80
2022/01/15 05:02:30;;;;;;;8.25;3.10;;;;;;;10.29;65.28;101207.25;4991397;28;20043;-80
2022/01/15 05:04:58;;;;;;;8.30;3.70;;;;;;;10.24;65.33;101215.03;4992415;28;20054;-79
2022/01/15 05:07:27;;;;;;;7.03;3.03;;;;;;;10.25;65.57;101216.81;4992009;28;20510;-80
2022/01/15 05:09:55;;;;;;;10.00;3.50;;;;;;;10.21;65.52;101217.63;5010179;28;20039;-80
2022/01/15 05:12:28;;;;;;;10.95;3.30;;;;;;;10.14;65.77;101214.75;4996904;28;20042;-80
2022/01/15 05:14:57;;;;;;;6.20;3.25;;;;;;;10.24;65.54;101222.97;5024175;28;20069;-80
2022/01/15 05:17:24;;;;;;;10.20;3.60;;;;;;;10.25;65.34;101219.47;5013359;28;20038;-80
2022/01/15 05:19:52;;;;;;;7.57;3.00;;;;;;;10.27;65.43;101225.69;5012133;28;20041;-80
2022/01/15 05:22:20;;;;;;;10.77;5.93;;;;;;;10.30;65.30;101224.88;5012211;28;20111;-80
2022/01/15 05:24:49;;;;;;;11.38;5.57;;;;;;;10.21;65.43;101230.81;5012111;28;20046;-80
2022/01/15 05:27:18;;;;;;;7.95;4.18;;;;;;;10.15;65.47;101230.63;5012404;28;20096;-79
2022/01/15 05:29:46;;;;;;;12.27;5.63;;;;;;;10.13;65.63;101224.41;5011694;28;20038;-80
2022/01/15 05:32:14;;;;;;;8.80;3.72;;;;;;;10.15;65.62;101235.91;4995494;28;20482;-80
2022/01/15 05:34:42;;;;;;;7.20;4.15;;;;;;;10.19;65.85;101229.88;5012846;28;20045;-79
2022/01/15 05:37:10;;;;;;;9.60;4.35;;;;;;;10.19;65.86;101227.25;4996775;28;20045;-80
2022/01/15 05:39:38;;;;;;;7.75;3.95;;;;;;;10.21;65.79;101233.44;4983705;28;20045;-80
2022/01/15 05:42:09;;;;;;;7.55;4.03;;;;;;;10.28;65.83;101232.75;4991902;28;20122;-80
2022/01/15 05:44:37;;;;;;;11.45;5.20;;;;;;;10.34;65.90;101232.91;5011630;28;20121;-80
2022/01/15 05:47:06;;;;;;;9.60;4.18;;;;;;;10.35;66.08;101237.31;4995410;28;20038;-81
2022/01/15 05:49:34;;;;;;;9.60;4.32;;;;;;;10.38;66.22;101236.47;5012515;28;20070;-80
2022/01/15 05:52:02;;;;;;;9.98;4.97;;;;;;;10.46;66.15;101231.38;5011156;28;20062;-81
2022/01/15 05:54:30;;;;;;;9.98;4.55;;;;;;;10.52;66.29;101221.88;5012562;28;20406;-80
2022/01/15 05:56:58;;;;;;;11.52;4.90;;;;;;;10.55;66.50;101229.88;5012116;28;20406;-78
2022/01/15 05:59:28;;;;;;;10.48;5.57;;;;;;;10.62;66.54;101230.91;5011489;28;20046;-80
2022/01/15 06:01:55;;;;;;;18.88;13.57;;;;;;;10.62;66.64;101236.19;5011187;28;20396;-80
2022/01/15 06:04:23;;;;;;;13.98;7.30;;;;;;;10.63;66.62;101230.06;5011062;28;20430;-80
2022/01/15 06:06:51;;;;;;;8.20;4.32;;;;;;;10.65;67.07;101238.88;5010538;28;20041;-80
2022/01/15 06:09:19;;;;;;;8.85;4.63;;;;;;;10.76;66.97;101232.13;5012270;28;20128;-80
2022/01/15 06:11:47;;;;;;;9.05;3.97;;;;;;;10.80;67.05;101226.03;5010467;28;20121;-80
2022/01/15 06:14:14;;;;;;;8.57;4.22;;;;;;;10.82;67.05;101231.34;5010218;28;20057;-80
2022/01/15 06:16:44;;;;;;;9.63;5.40;;;;;;;10.94;67.14;101231.63;5012114;28;20677;-79
2022/01/15 06:19:12;;;;;;;13.18;6.32;;;;;;;11.05;67.30;101232.72;5012345;28;20502;-78
2022/01/15 06:21:40;;;;;;;11.43;5.55;;;;;;;11.13;67.27;101231.13;5010483;28;20206;-80
2022/01/15 06:24:08;;;;;;;30.90;12.23;;;;;;;11.27;66.83;101234.06;4995571;28;20034;-80
2022/01/15 06:26:36;;;;;;;15.90;8.02;;;;;;;11.58;66.70;101234.69;5023446;28;20041;-80
2022/01/15 06:29:04;;;;;;;16.50;9.02;;;;;;;11.85;66.67;101239.63;5031871;28;20049;-80
2022/01/15 06:31:32;;;;;;;43.38;24.65;;;;;;;12.08;66.49;101236.53;5031394;28;20099;-81
2022/01/15 06:34:03;;;;;;;26.55;15.88;;;;;;;12.15;66.30;101236.63;5029711;28;20417;-81
2022/01/15 06:36:31;;;;;;;17.10;10.90;;;;;;;12.09;66.57;101239.16;5000844;28;20052;-80
2022/01/15 06:38:59;;;;;;;9.25;4.75;;;;;;;12.10;66.76;101233.00;4991797;28;20510;-80
2022/01/15 06:41:27;;;;;;;10.48;6.07;;;;;;;12.09;66.34;101246.22;4992121;28;20045;-81
2022/01/15 06:43:54;;;;;;;10.55;6.93;;;;;;;12.01;65.57;101248.75;4992466;28;20046;-81
2022/01/15 06:46:22;;;;;;;10.35;6.38;;;;;;;12.02;65.73;101245.22;4990540;28;20495;-80
2022/01/15 06:48:50;;;;;;;9.95;7.47;;;;;;;12.06;65.91;101243.53;4991079;28;20085;-81
2022/01/15 06:51:20;;;;;;;7.85;4.57;;;;;;;12.08;66.10;101247.09;4991050;28;20487;-80
2022/01/15 06:53:47;;;;;;;11.02;4.63;;;;;;;12.38;66.18;101248.50;4991720;28;20449;-80
2022/01/15 06:56:15;;;;;;;8.68;4.60;;;;;;;12.57;65.81;101249.66;4992027;28;20074;-80
2022/01/15 06:58:45;;;;;;;7.15;3.10;;;;;;;12.64;65.72;101253.28;4990908;28;20679;-80
2022/01/15 07:01:13;;;;;;;8.50;4.68;;;;;;;12.56;65.69;101254.94;4991586;28;20545;-81
2022/01/15 07:03:41;;;;;;;10.70;5.03;;;;;;;12.46;65.59;101261.84;4991341;28;20162;-80
2022/01/15 07:06:09;;;;;;;8.38;5.00;;;;;;;12.68;65.63;101261.28;5011958;28;20048;-80
2022/01/15 07:08:39;;;;;;;9.98;5.90;;;;;;;13.25;65.28;101262.13;5010706;28;20065;-81
2022/01/15 07:11:06;;;;;;;9.48;4.03;;;;;;;13.62;64.86;101268.75;4990743;28;20043;-82
2022/01/15 07:13:34;;;;;;;8.50;3.08;;;;;;;13.65;64.43;101263.50;4990781;28;20042;-82
2022/01/15 07:16:02;;;;;;;6.85;3.63;;;;;;;13.59;64.67;101268.75;4992225;28;20038;-82
2022/01/15 07:18:30;;;;;;;7.53;3.78;;;;;;;13.52;64.86;101266.00;4992522;28;20045;-82
2022/01/15 07:20:58;;;;;;;9.80;4.38;;;;;;;13.60;64.77;101263.44;4991909;28;20411;-79
2022/01/15 07:23:26;;;;;;;5.18;2.80;;;;;;;13.59;64.71;101271.41;4991186;28;20066;-79
2022/01/15 07:25:55;;;;;;;12.95;7.80;;;;;;;13.54;64.86;101266.91;4992863;28;20053;-79
2022/01/15 07:28:25;;;;;;;10.77;4.65;;;;;;;13.94;64.64;101273.53;4994785;28;20038;-79
2022/01/15 07:30:53;;;;;;;4.88;2.95;;;;;;;14.18;64.15;101262.25;5009515;28;20097;-79
2022/01/15 07:33:21;;;;;;;7.25;3.33;;;;;;;14.11;64.25;101260.41;4993072;28;20092;-79
2022/01/15 07:35:49;;;;;;;6.70;3.15;;;;;;;14.01;63.38;101263.88;4992024;28;20038;-78
2022/01/15 07:38:20;;;;;;;11.45;4.90;;;;;;;13.90;63.40;101260.22;4998584;28;20057;-79
2022/01/15 07:40:48;;;;;;;8.95;4.70;;;;;;;13.72;63.34;101276.81;4993689;28;20561;-78
2022/01/15 07:43:18;;;;;;;7.20;3.80;;;;;;;13.73;63.11;101277.72;4993121;28;20567;-79
2022/01/15 07:45:46;;;;;;;11.32;4.07;;;;;;;13.65;62.62;101284.72;5007305;28;20045;-78
2022/01/15 07:48:14;;;;;;;10.05;4.82;;;;;;;13.57;62.22;101282.88;5008519;28;20070;-79
2022/01/15 07:50:42;;;;;;;11.90;4.85;;;;;;;13.60;62.58;101282.00;5013654;28;20046;-77
2022/01/15 07:53:10;;;;;;;18.42;6.80;;;;;;;13.64;62.57;101275.88;4994913;28;20046;-78
2022/01/15 07:55:38;;;;;;;11.27;5.20;;;;;;;13.63;62.34;101287.34;5017911;28;20044;-79
2022/01/15 07:58:08;;;;;;;11.10;3.70;;;;;;;13.64;62.11;101288.25;4992198;28;20690;-79
2022/01/15 08:00:38;;;;;;;9.95;4.28;;;;;;;13.70;62.31;101290.97;4993433;28;20082;-79
2022/01/15 08:03:06;;;;;;;7.20;3.28;;;;;;;13.74;62.42;101285.69;4998098;28;20054;-78
2022/01/15 08:05:34;;;;;;;7.57;4.10;;;;;;;13.74;62.23;101292.78;5003543;28;20449;-78
2022/01/15 08:08:02;;;;;;;7.47;2.58;;;;;;;13.78;62.04;101291.94;5014495;28;20148;-79
2022/01/15 08:10:29;;;;;;;6.93;3.42;;;;;;;13.71;61.91;101291.00;5012972;28;20038;-78
2022/01/15 08:12:57;;;;;;;10.20;3.85;;;;;;;13.66;61.38;101297.09;5012350;28;20053;-79
2022/01/15 08:15:27;;;;;;;6.55;2.65;;;;;;;13.54;60.67;101297.84;5011429;28;20042;-79
2022/01/15 08:17:56;;;;;;;4.57;2.05;;;;;;;13.50;60.95;101304.88;5010776;28;20394;-78
2022/01/15 08:20:24;;;;;;;6.32;2.20;;;;;;;13.47;60.94;101302.19;5011893;28;20049;-79
2022/01/15 08:22:53;;;;;;;7.10;2.05;;;;;;;13.40;60.85;101302.97;5011949;28;20034;-79
2022/01/15 08:25:24;;;;;;;9.63;2.83;;;;;;;13.42;61.05;101311.84;4976560;28;20049;-78
2022/01/15 08:27:53;;;;;;;10.68;3.45;;;;;;;13.34;60.84;101309.97;4993386;28;20042;-79
2022/01/15 08:30:22;;;;;;;8.60;3.13;;;;;;;13.33;61.13;101318.78;4993426;28;20524;-78
2022/01/15 08:32:51;;;;;;;8.93;5.18;;;;;;;13.32;61.46;101315.28;4993446;28;20030;-78
2022/01/15 08:35:20;;;;;;;8.82;3.53;;;;;;;13.37;61.45;101313.56;4992646;28;20034;-79
2022/01/15 08:37:48;;;;;;;12.32;4.82;;;;;;;13.40;61.47;101315.34;4992764;28;20069;-79
2022/01/15 08:40:19;;;;;;;9.80;4.15;;;;;;;13.50;61.49;101311.94;4993521;28;20046;-79
2022/01/15 08:42:48;;;;;;;6.93;3.40;;;;;;;13.51;61.58;101319.94;4992094;28;20054;-78
2022/01/15 08:45:16;;;;;;;7.95;3.10;;;;;;;13.50;60.96;101309.31;4991851;28;20502;-79
2022/01/15 08:47:44;;;;;;;7.43;2.92;;;;;;;13.55;61.17;101313.78;4993054;28;20057;-78
2022/01/15 08:50:14;;;;;;;7.72;3.72;;;;;;;13.65;60.99;101300.66;4991895;28;20030;-77
2022/01/15 08:52:43;;;;;;;8.65;4.18;;;;;;;13.79;60.83;101315.81;4991774;28;20487;-77
2022/01/15 08:55:12;;;;;;;15.95;5.88;;;;;;;13.92;61.04;101312.44;4992251;28;20039;-79
2022/01/15 08:57:42;;;;;;;11.30;3.55;;;;;;;14.01;60.94;101314.31;4991670;28;20093;-78
2022/01/15 09:00:12;;;;;;;7.90;3.85;;;;;;;14.02;60.91;101308.13;4988830;28;20561;-78
2022/01/15 09:02:41;;;;;;;4.80;2.40;;;;;;;14.06;61.00;101309.94;5011611;28;20554;-78
2022/01/15 09:05:10;;;;;;;5.55;2.55;;;;;;;14.14;61.16;101302.94;5011184;28;20042;-78
2022/01/15 09:07:39;;;;;;;4.53;2.50;;;;;;;14.27;61.06;101299.50;5010833;28;20053;-78
2022/01/15 09:10:09;;;;;;;8.25;3.17;;;;;;;14.36;60.87;101307.56;5007618;28;20126;-78
2022/01/15 09:12:37;;;;;;;9.27;6.40;;;;;;;14.29;60.37;101307.50;4992417;28;20125;-79
2022/01/15 09:15:06;;;;;;;17.20;9.38;;;;;;;14.25;60.27;101306.56;4991944;28;20503;-78
2022/01/15 09:17:34;;;;;;;17.65;7.35;;;;;;;14.32;60.60;101307.50;4992205;28;20046;-78
2022/01/15 09:20:02;;;;;;;11.25;6.05;;;;;;;14.46;60.84;101312.97;4992149;28;20052;-78
2022/01/15 09:22:49;;;;;;;8.27;4.10;;;;;;;14.59;61.14;101304.25;4992031;28;20050;-79
2022/01/15 09:25:19;;;;;;;5.60;2.97;;;;;;;14.84;61.15;101300.88;4990311;28;20522;-78
2022/01/15 09:30:32;;;;;;;6.97;3.15;;;;;;;15.13;60.58;101301.06;4992309;28;20613;-78
2022/01/15 09:33:02;;;;;;;6.30;2.72;;;;;;;15.46;59.89;101295.03;4990366;28;20054;-79
2022/01/15 09:35:30;;;;;;;7.43;2.85;;;;;;;15.52;59.96;101295.97;4990221;28;20035;-79
2022/01/15 09:38:00;;;;;;;6.40;2.20;;;;;;;15.47;59.38;101291.50;4991861;28;20150;-78
2022/01/15 09:40:30;;;;;;;6.07;2.45;;;;;;;15.29;58.46;101283.44;4995216;28;20176;-78
2022/01/15 09:42:58;;;;;;;3.75;2.05;;;;;;;15.22;59.09;101285.19;4999495;28;20124;-79
2022/01/15 09:45:26;;;;;;;3.53;2.08;;;;;;;15.37;59.19;101266.59;5000426;28;20420;-78
2022/01/15 09:47:58;;;;;;;7.18;1.95;;;;;;;15.39;58.52;101278.16;5008178;28;20111;-80
2022/01/15 09:50:29;;;;;;;5.18;2.58;;;;;;;15.34;58.17;101268.38;5019711;28;20038;-78
2022/01/15 09:52:57;;;;;;;5.75;2.83;;;;;;;15.39;58.61;101277.25;5009394;28;20049;-78
2022/01/15 09:55:26;;;;;;;8.93;3.13;;;;;;;15.44;58.36;101262.19;5010241;28;20030;-80
2022/01/15 09:57:56;;;;;;;5.85;2.25;;;;;;;15.38;58.42;101275.47;5010270;28;20115;-79
2022/01/15 10:00:26;;;;;;;13.98;6.20;;;;;;;15.52;58.53;101265.78;5011174;28;20049;-79
2022/01/15 10:02:54;;;;;;;7.03;3.80;;;;;;;15.67;58.73;101257.88;4993480;28;20096;-79
2022/01/15 10:05:23;;;;;;;7.82;3.88;;;;;;;15.84;58.76;101250.81;5008942;28;20699;-79
2022/01/15 10:08:00;;;;;;;8.35;6.43;;;;;;;15.82;58.23;101255.22;5011045;28;20569;-79
2022/01/15 10:10:31;;;;;;;9.75;6.47;;;;;;;15.76;58.18;101249.00;5009259;28;20046;-80
2022/01/15 10:13:13;;;;;;;9.30;7.07;;;;;;;15.92;58.26;101246.41;5010207;28;20038;-80
2022/01/15 10:15:45;;;;;;;6.95;3.97;;;;;;;15.91;58.44;101244.63;5003197;28;20445;-80
2022/01/15 10:18:20;;;;;;;8.55;3.72;;;;;;;15.80;57.96;101238.41;5018024;28;20045;-80
2022/01/15 10:20:48;;;;;;;5.72;2.42;;;;;;;15.68;57.90;101245.47;5002359;28;20042;-80
2022/01/15 10:23:18;;;;;;;5.55;1.90;;;;;;;15.69;57.89;101217.94;5004893;28;20122;-80
2022/01/15 10:25:46;;;;;;;5.40;2.13;;;;;;;15.56;56.96;101230.31;4995787;28;20050;-79
2022/01/15 10:28:15;;;;;;;7.40;2.92;;;;;;;15.45;56.76;101235.59;5013978;28;20108;-79
2022/01/15 10:30:46;;;;;;;4.80;2.47;;;;;;;15.35;57.16;101239.13;5009330;28;20575;-78
2022/01/15 10:33:14;;;;;;;7.65;3.38;;;;;;;15.33;57.26;101232.00;5008257;28;20060;-78
2022/01/15 10:35:43;;;;;;;3.90;1.65;;;;;;;15.45;57.11;101227.63;5001991;28;20048;-77
2022/01/15 10:38:14;;;;;;;5.57;2.10;;;;;;;15.50;56.55;101235.59;5009266;28;20613;-79
2022/01/15 10:40:44;;;;;;;2.78;1.23;;;;;;;15.50;56.12;101217.88;5009425;28;20092;-78
2022/01/15 10:43:15;;;;;;;3.42;1.83;;;;;;;15.45;56.35;101226.72;5007780;28;20092;-77
2022/01/15 10:45:50;;;;;;;4.13;1.52;;;;;;;15.73;56.99;101209.97;5008587;28;20070;-79
2022/01/15 10:48:23;;;;;;;6.25;1.67;;;;;;;15.93;56.77;101210.91;5009621;28;20569;-79
2022/01/15 10:50:58;;;;;;;5.43;2.28;;;;;;;16.11;56.63;101203.78;5007435;28;20038;-79
2022/01/15 10:53:35;;;;;;;5.03;1.67;;;;;;;16.07;56.01;101204.69;5003108;28;20038;-79
2022/01/15 10:56:04;;;;;;;4.35;1.70;;;;;;;16.08;56.13;101217.97;5007627;28;20045;-79
2022/01/15 10:58:33;;;;;;;4.40;1.73;;;;;;;16.10;55.80;101199.34;5006065;28;20124;-80
2022/01/15 11:01:01;;;;;;;4.40;1.77;;;;;;;16.06;55.62;101200.25;4996039;28;20111;-79
2022/01/15 11:03:37;;;;;;;3.47;1.50;;;;;;;15.96;55.31;101204.66;5013225;28;20140;-78
2022/01/15 11:06:05;;;;;;;6.95;2.17;;;;;;;15.76;54.80;101199.31;5014312;28;20041;-80
2022/01/15 11:08:36;;;;;;;4.28;1.98;;;;;;;15.69;55.17;101197.53;5013742;28;20054;-79
2022/01/15 11:11:06;;;;;;;3.35;1.70;;;;;;;15.72;55.63;101186.91;5011971;28;20050;-79
2022/01/15 11:13:37;;;;;;;5.88;2.03;;;;;;;15.97;55.97;101193.13;4996181;28;20487;-79
2022/01/15 11:16:09;;;;;;;6.53;1.65;;;;;;;15.98;56.03;101186.94;5014079;28;20116;-79
2022/01/15 11:18:39;;;;;;;6.38;2.95;;;;;;;15.88;55.92;101188.69;4996365;28;20085;-79
2022/01/15 11:21:08;;;;;;;4.03;1.50;;;;;;;15.80;55.12;101186.91;5007553;28;20052;-78
2022/01/15 11:23:37;;;;;;;3.60;1.63;;;;;;;15.80;55.38;101190.47;5006859;28;20120;-78
2022/01/15 11:26:08;;;;;;;6.13;1.55;;;;;;;15.89;55.67;101185.13;5006599;28;20038;-79
2022/01/15 11:28:38;;;;;;;4.38;1.90;;;;;;;15.95;55.78;101182.47;5016107;28;20133;-79
2022/01/15 11:31:09;;;;;;;4.15;2.00;;;;;;;15.97;56.03;101186.91;5014050;28;20081;-78
2022/01/15 11:33:40;;;;;;;2.15;1.60;;;;;;;16.06;56.15;101187.81;4991778;28;20065;-80
2022/01/15 11:36:09;;;;;;;4.47;2.63;;;;;;;16.14;56.04;101182.50;5013363;28;20069;-80
2022/01/15 11:38:43;;;;;;;2.30;1.20;;;;;;;16.25;55.97;101189.59;5026197;28;20061;-79
2022/01/15 11:41:37;;;;;;;3.55;1.63;;;;;;;16.27;55.34;101170.94;5013595;28;20049;-80
2022/01/15 11:44:07;;;;;;;2.15;1.23;;;;;;;16.18;55.43;101178.94;5013055;28;20494;-77
2022/01/15 11:46:41;;;;;;;4.20;1.80;;;;;;;16.14;55.54;101179.84;5011032;28;20074;-78